Time;durP1;ratioP1;P1;durP2;ratioP2;P2;SDS_P1;SDS_P2;PMS_P1;PMS_P2;Temp;Humidity;BMP_temperature;BMP_pressure;BME280_temperature;BME280_humidity;BME280_pressure;Samples;Min_cycle;Max_cycle;Signal;HPM_P1;HPM_P2
2022/09/03 00:02:01;;;;;;;2.25;1.02;;;16.40;90.30;;;;;;5050028;28;20048;-88
2022/09/03 00:04:42;;;;;;;2.97;0.60;;;16.30;90.50;;;;;;5011852;28;20133;-88
2022/09/03 00:07:16;;;;;;;3.75;0.68;;;16.30;90.30;;;;;;5042952;28;20108;-88
2022/09/03 00:09:54;;;;;;;4.43;0.63;;;16.30;90.40;;;;;;5051240;28;20051;-89
2022/09/03 00:12:28;;;;;;;3.58;0.80;;;16.30;90.50;;;;;;5050948;28;20083;-88
2022/09/03 00:15:07;;;;;;;5.40;0.93;;;16.20;90.60;;;;;;5049485;28;20263;-88
2022/09/03 00:17:44;;;;;;;3.28;0.82;;;16.10;90.70;;;;;;5052911;28;20294;-88
2022/09/03 00:20:25;;;;;;;1.95;0.70;;;16.10;90.70;;;;;;5051224;28;20099;-89
2022/09/03 00:22:57;;;;;;;3.15;0.70;;;16.00;90.80;;;;;;5052654;28;20364;-87
2022/09/03 00:25:38;;;;;;;2.60;0.70;;;16.00;90.80;;;;;;5073290;28;20044;-88
2022/09/03 00:28:13;;;;;;;1.63;0.60;;;16.00;90.90;;;;;;5052118;28;20051;-88
2022/09/03 00:30:41;;;;;;;5.85;0.70;;;15.90;90.90;;;;;;5054577;28;20783;-89
2022/09/03 00:33:12;;;;;;;2.42;0.60;;;15.90;91.00;;;;;;5056132;28;20036;-89
2022/09/03 00:35:52;;;;;;;3.30;0.80;;;15.90;91.00;;;;;;5052918;28;20055;-89
2022/09/03 00:38:21;;;;;;;2.25;0.90;;;15.80;91.10;;;;;;5039513;28;20457;-88
2022/09/03 00:41:12;;;;;;;3.67;0.90;;;15.80;91.20;;;;;;5054974;28;20055;-88
2022/09/03 00:44:02;;;;;;;4.07;0.77;;;15.80;91.20;;;;;;5072841;28;20070;-87
2022/09/03 00:46:52;;;;;;;2.10;0.90;;;15.70;91.20;;;;;;5050762;28;20044;-89
2022/09/03 00:49:33;;;;;;;3.47;1.05;;;15.70;91.50;;;;;;5074321;28;20045;-88
2022/09/03 00:52:45;;;;;;;3.50;0.70;;;15.60;91.50;;;;;;5055926;28;20055;-88
2022/09/03 00:55:32;;;;;;;2.70;0.60;;;15.60;91.80;;;;;;4991831;28;20053;-89
2022/09/03 00:58:12;;;;;;;6.50;0.60;;;15.60;91.50;;;;;;5004821;28;20045;-88
2022/09/03 01:00:43;;;;;;;2.28;0.70;;;15.50;91.80;;;;;;4975445;28;20073;-87
2022/09/03 01:03:54;;;;;;;3.25;0.70;;;15.50;91.70;;;;;;4986611;28;20637;-88
2022/09/03 01:06:48;;;;;;;2.28;0.80;;;15.40;91.80;;;;;;4940561;28;20642;-89
2022/09/03 01:09:40;;;;;;;4.30;0.80;;;15.40;92.10;;;;;;4951530;28;20055;-88
2022/09/03 01:12:42;;;;;;;1.92;0.75;;;15.40;92.00;;;;;;4955117;28;20059;-89
2022/09/03 01:15:15;;;;;;;3.58;0.80;;;15.30;92.00;;;;;;4951121;28;20058;-88
2022/09/03 01:18:05;;;;;;;6.10;0.80;;;15.30;91.90;;;;;;4932383;28;20231;-89
2022/09/03 01:21:03;;;;;;;1.65;0.60;;;15.30;92.20;;;;;;4953970;28;20070;-88
2022/09/03 01:23:36;;;;;;;5.53;0.98;;;15.20;92.10;;;;;;4954714;28;20187;-89
2022/09/03 01:26:37;;;;;;;2.55;0.90;;;15.20;92.10;;;;;;4949427;28;20063;-89
2022/09/03 01:29:06;;;;;;;2.50;0.80;;;15.20;92.50;;;;;;4912428;29;20063;-88
2022/09/03 01:31:58;;;;;;;5.45;0.85;;;15.10;92.20;;;;;;4934993;29;20594;-88
2022/09/03 01:34:38;;;;;;;4.65;0.90;;;15.10;92.40;;;;;;4924110;29;20545;-88
2022/09/03 01:37:16;;;;;;;4.75;0.82;;;15.10;92.40;;;;;;4933285;29;20043;-89
2022/09/03 01:40:13;;;;;;;3.50;0.73;;;15.00;92.30;;;;;;4955746;28;20062;-90
2022/09/03 01:43:02;;;;;;;4.35;0.80;;;15.00;92.60;;;;;;4978125;28;20046;-89
2022/09/03 01:45:53;;;;;;;1.63;0.60;;;14.90;92.60;;;;;;5017053;28;20076;-87
2022/09/03 01:48:46;;;;;;;1.92;0.70;;;14.90;92.50;;;;;;4997942;28;20053;-89
2022/09/03 01:51:24;;;;;;;2.53;0.98;;;14.90;92.70;;;;;;5014764;28;20041;-88
2022/09/03 01:54:00;;;;;;;4.03;0.80;;;14.80;92.60;;;;;;5002652;28;20161;-88
2022/09/03 01:56:49;;;;;;;2.00;0.90;;;14.80;92.70;;;;;;5010663;28;20468;-89
2022/09/03 01:59:25;;;;;;;5.10;0.90;;;14.80;92.90;;;;;;5013041;28;20068;-89
2022/09/03 02:02:02;;;;;;;2.20;0.73;;;14.80;92.80;;;;;;4983730;28;20046;-89
2022/09/03 02:04:36;;;;;;;2.55;0.65;;;14.70;93.00;;;;;;4999041;28;20465;-88
2022/09/03 02:07:08;;;;;;;3.80;0.70;;;14.70;93.00;;;;;;5063101;28;20056;-86
2022/09/03 02:09:34;;;;;;;1.63;0.85;;;14.70;93.10;;;;;;5034082;28;20048;-88
2022/09/03 02:12:27;;;;;;;6.85;0.90;;;14.60;93.10;;;;;;5054051;28;20140;-88
2022/09/03 02:14:54;;;;;;;3.85;0.80;;;14.00;93.20;;;;;;5072497;28;20060;-88
2022/09/03 02:17:20;;;;;;;3.50;0.80;;;14.60;93.20;;;;;;5068368;28;20837;-87
2022/09/03 02:19:46;;;;;;;2.33;0.80;;;14.60;93.30;;;;;;5054192;28;20125;-88
2022/09/03 02:22:12;;;;;;;3.80;0.82;;;14.90;93.40;;;;;;5066171;22;20067;-83
2022/09/03 02:24:38;;;;;;;2.17;0.80;;;14.70;93.30;;;;;;5072147;28;20105;-83
2022/09/03 02:27:06;;;;;;;3.90;0.95;;;14.60;93.40;;;;;;5091477;28;20064;-83
2022/09/03 02:29:32;;;;;;;3.25;0.80;;;14.80;93.50;;;;;;5091309;28;20051;-83
2022/09/03 02:32:00;;;;;;;3.05;0.73;;;14.70;93.50;;;;;;5094986;28;21435;-82
2022/09/03 02:34:26;;;;;;;2.53;0.63;;;14.60;93.50;;;;;;5077155;28;20183;-83
2022/09/03 02:36:52;;;;;;;2.80;0.73;;;14.50;93.60;;;;;;5073565;28;20498;-83
2022/09/03 02:39:18;;;;;;;2.00;0.60;;;14.50;93.60;;;;;;5084776;28;20050;-83
2022/09/03 02:41:50;;;;;;;2.90;0.77;;;14.50;93.50;;;;;;5102616;28;20032;-83
2022/09/03 02:44:25;;;;;;;4.68;1.38;;;14.50;93.60;;;;;;5099148;28;20491;-83
2022/09/03 02:47:03;;;;;;;;;;;14.50;93.60;;;;;;5089882;28;20035;-83
2022/09/03 02:49:35;;;;;;;2.50;0.80;;;14.50;93.80;;;;;;5107784;28;19924;-83
2022/09/03 02:52:05;;;;;;;3.47;1.08;;;14.60;93.60;;;;;;5088329;28;20410;-83
2022/09/03 02:54:43;;;;;;;2.75;0.82;;;14.60;93.60;;;;;;5090990;28;20123;-85
2022/09/03 02:57:13;;;;;;;3.28;0.80;;;14.60;93.60;;;;;;5097220;28;20097;-84
2022/09/03 02:59:48;;;;;;;2.47;0.73;;;14.60;93.60;;;;;;5085677;28;20028;-84
2022/09/03 03:02:14;;;;;;;1.80;0.70;;;15.10;93.80;;;;;;5071297;28;20119;-84
2022/09/03 03:04:43;;;;;;;3.35;1.23;;;14.60;93.60;;;;;;5100339;28;20172;-83
2022/09/03 03:07:11;;;;;;;2.40;1.20;;;14.70;93.60;;;;;;5104653;28;20055;-84
2022/09/03 03:09:37;;;;;;;3.33;0.80;;;14.70;93.70;;;;;;5105510;28;20379;-84
2022/09/03 03:12:03;;;;;;;3.10;0.90;;;14.70;93.70;;;;;;5108285;28;20047;-83
2022/09/03 03:14:40;;;;;;;2.40;0.80;;;14.70;93.70;;;;;;5103601;28;20075;-84
2022/09/03 03:17:06;;;;;;;2.47;0.80;;;14.70;93.80;;;;;;5083871;28;20058;-84
2022/09/03 03:19:32;;;;;;;4.75;0.82;;;14.80;93.80;;;;;;5105709;28;20588;-84
2022/09/03 03:22:07;;;;;;;;;;;;;;;;;;;;;
2022/09/03 03:24:41;;;;;;;3.38;0.80;;;14.80;93.70;;;;;;5106543;28;20371;-83
2022/09/03 03:27:12;;;;;;;3.00;0.82;;;14.70;93.70;;;;;;5067498;28;20126;-83
2022/09/03 03:29:40;;;;;;;3.67;0.98;;;14.90;93.70;;;;;;5108744;28;20054;-84
2022/09/03 03:32:11;;;;;;;2.17;0.95;;;14.70;93.70;;;;;;5090575;28;20032;-83
2022/09/03 03:34:40;;;;;;;3.25;1.00;;;14.70;93.70;;;;;;5102881;28;20083;-84
2022/09/03 03:37:08;;;;;;;2.38;0.90;;;14.70;93.80;;;;;;5094278;28;20048;-84
2022/09/03 03:39:37;;;;;;;3.33;0.90;;;14.70;93.90;;;;;;5084453;28;20449;-84
2022/09/03 03:42:10;;;;;;;2.38;0.90;;;14.70;93.90;;;;;;5098316;28;20036;-84
2022/09/03 03:44:35;;;;;;;3.28;1.27;;;14.70;93.90;;;;;;5076795;28;20055;-84
2022/09/03 03:47:01;;;;;;;2.20;0.80;;;14.60;93.80;;;;;;5088986;28;20035;-84
2022/09/03 03:49:27;;;;;;;3.83;1.00;;;14.70;93.90;;;;;;5091986;28;20051;-84
2022/09/03 03:51:55;;;;;;;2.28;0.90;;;14.70;93.90;;;;;;5086551;28;20044;-84
2022/09/03 03:54:21;;;;;;;5.93;1.00;;;14.70;94.00;;;;;;5101759;28;20032;-83
2022/09/03 03:56:55;;;;;;;6.93;1.27;;;14.70;94.00;;;;;;5089249;28;20043;-84
2022/09/03 03:59:27;;;;;;;4.07;1.38;;;14.50;94.10;;;;;;5077328;28;20101;-83
2022/09/03 04:01:58;;;;;;;6.00;1.00;;;14.60;94.10;;;;;;5084598;28;20039;-84
2022/09/03 04:04:23;;;;;;;2.33;0.90;;;15.00;94.30;;;;;;5102510;28;20036;-83
2022/09/03 04:06:49;;;;;;;4.07;1.17;;;14.60;94.20;;;;;;5105975;28;20071;-84
2022/09/03 04:09:15;;;;;;;3.13;1.17;;;14.50;94.30;;;;;;5106432;28;20118;-84
2022/09/03 04:11:43;;;;;;;3.80;0.80;;;14.50;94.40;;;;;;5078648;28;20063;-84
2022/09/03 04:14:11;;;;;;;2.20;0.90;;;14.50;94.40;;;;;;5097853;28;20044;-83
2022/09/03 04:16:37;;;;;;;7.68;1.10;;;14.40;94.70;;;;;;5093386;28;20036;-83
2022/09/03 04:19:03;;;;;;;2.47;1.02;;;14.40;94.50;;;;;;5106595;28;20100;-84
2022/09/03 04:21:35;;;;;;;2.42;1.00;;;14.50;94.60;;;;;;5063128;28;20048;-83
2022/09/03 04:24:10;;;;;;;2.90;1.20;;;14.40;94.60;;;;;;5065362;28;20056;-84
2022/09/03 04:26:35;;;;;;;1.70;0.90;;;14.40;94.60;;;;;;5082822;28;20045;-84
2022/09/03 04:29:10;;;;;;;3.00;0.85;;;14.40;94.70;;;;;;5079371;28;20500;-83
2022/09/03 04:34:29;;;;;;;7.03;1.55;;;14.40;94.80;;;;;;5081903;28;20083;-83
2022/09/03 04:37:00;;;;;;;3.17;1.13;;;14.40;94.80;;;;;;5087399;28;20087;-84
2022/09/03 04:39:26;;;;;;;4.07;1.00;;;14.30;94.80;;;;;;5067780;28;20078;-84
2022/09/03 04:41:52;;;;;;;4.05;1.05;;;14.80;95.00;;;;;;5073786;28;20352;-83
2022/09/03 04:44:20;;;;;;;2.60;1.00;;;14.30;95.00;;;;;;5082659;28;20071;-84
2022/09/03 04:46:48;;;;;;;2.25;1.08;;;14.20;95.10;;;;;;5085102;28;20048;-84
2022/09/03 04:49:17;;;;;;;3.17;1.20;;;14.20;95.10;;;;;;5084906;28;20134;-83
2022/09/03 04:51:45;;;;;;;2.65;1.00;;;14.20;95.20;;;;;;5080433;28;20052;-84
2022/09/03 04:54:11;;;;;;;2.15;1.10;;;14.20;95.30;;;;;;5064637;28;20159;-84
2022/09/03 04:56:38;;;;;;;3.28;1.30;;;14.10;95.30;;;;;;5082794;28;20538;-84
2022/09/03 04:59:08;;;;;;;2.72;1.20;;;14.10;95.40;;;;;;5067339;28;20052;-84
2022/09/03 05:01:38;;;;;;;2.15;1.15;;;14.10;95.40;;;;;;5079894;28;20047;-84
2022/09/03 05:04:07;;;;;;;4.10;1.20;;;14.10;95.50;;;;;;5079639;28;20060;-84
2022/09/03 05:06:37;;;;;;;2.45;1.20;;;14.10;95.50;;;;;;5097183;28;20117;-83
2022/09/03 05:09:05;;;;;;;4.18;1.35;;;14.10;95.60;;;;;;5076270;28;20448;-84
2022/09/03 05:11:35;;;;;;;4.75;1.38;;;14.10;95.60;;;;;;5080720;28;20040;-82
2022/09/03 05:14:01;;;;;;;3.83;1.50;;;14.10;95.70;;;;;;5086234;28;20074;-84
2022/09/03 05:16:33;;;;;;;4.72;1.55;;;14.10;95.80;;;;;;5088745;28;20055;-84
2022/09/03 05:18:59;;;;;;;5.80;1.10;;;14.10;95.80;;;;;;5086984;28;20479;-84
2022/09/03 05:21:28;;;;;;;3.10;1.20;;;14.10;95.90;;;;;;5083388;28;20044;-84
2022/09/03 05:24:02;;;;;;;7.40;1.48;;;14.10;95.90;;;;;;5104413;28;20032;-83
2022/09/03 05:26:35;;;;;;;3.53;1.40;;;14.10;96.00;;;;;;5096490;28;20040;-82
2022/09/03 05:29:06;;;;;;;3.38;1.20;;;14.10;96.10;;;;;;5088503;28;20047;-83
2022/09/03 05:31:33;;;;;;;4.05;1.40;;;14.10;96.10;;;;;;5083964;28;20071;-83
2022/09/03 05:34:05;;;;;;;5.60;1.48;;;14.10;96.10;;;;;;5104174;28;20048;-84
2022/09/03 05:36:35;;;;;;;3.75;1.50;;;14.10;96.20;;;;;;5081686;28;20036;-84
2022/09/03 05:39:07;;;;;;;2.17;1.20;;;14.10;96.30;;;;;;5075300;28;20531;-84
2022/09/03 05:41:33;;;;;;;6.15;1.50;;;14.10;96.20;;;;;;5082342;28;20055;-83
2022/09/03 05:43:59;;;;;;;4.25;1.48;;;14.10;96.40;;;;;;5087020;28;20036;-84
2022/09/03 05:46:32;;;;;;;3.83;1.40;;;14.10;96.40;;;;;;5082569;28;20075;-84
2022/09/03 05:49:10;;;;;;;6.90;1.50;;;14.00;96.40;;;;;;5105131;28;20055;-84
2022/09/03 05:51:45;;;;;;;2.92;1.15;;;14.10;96.40;;;;;;5062533;28;20144;-83
2022/09/03 05:54:16;;;;;;;3.50;1.50;;;14.20;96.60;;;;;;5089278;28;20036;-83
2022/09/03 05:56:54;;;;;;;4.15;1.35;;;14.00;96.70;;;;;;5068865;28;20044;-84
2022/09/03 05:59:27;;;;;;;4.20;1.42;;;14.00;96.70;;;;;;5079333;28;20036;-86
2022/09/03 06:01:53;;;;;;;3.15;1.38;;;14.10;96.80;;;;;;5086349;28;20052;-83
2022/09/03 06:04:19;;;;;;;4.15;1.85;;;14.00;96.80;;;;;;5078492;28;20043;-84
2022/09/03 06:06:48;;;;;;;4.78;1.67;;;14.10;96.90;;;;;;5082160;28;20040;-83
2022/09/03 06:09:24;;;;;;;4.03;1.83;;;14.40;97.00;;;;;;5080738;28;20072;-84
2022/09/03 06:11:50;;;;;;;4.57;1.35;;;14.10;96.90;;;;;;5082927;28;20044;-83
2022/09/03 06:14:19;;;;;;;5.57;1.45;;;14.20;96.90;;;;;;5069953;28;20063;-84
2022/09/03 06:16:49;;;;;;;3.22;1.88;;;14.10;97.00;;;;;;5061477;28;20127;-84
2022/09/03 06:19:15;;;;;;;2.38;1.23;;;14.10;97.00;;;;;;5084325;28;20042;-83
2022/09/03 06:21:45;;;;;;;2.60;1.30;;;14.10;97.10;;;;;;5091862;28;20549;-83
2022/09/03 06:24:15;;;;;;;4.85;1.42;;;14.10;97.10;;;;;;5103521;28;20058;-84
2022/09/03 06:26:47;;;;;;;2.88;1.50;;;14.20;97.20;;;;;;5108742;28;20597;-84
2022/09/03 06:29:13;;;;;;;7.70;1.83;;;14.90;97.30;;;;;;5106770;28;20050;-84
2022/09/03 06:31:39;;;;;;;5.28;1.50;;;14.20;97.20;;;;;;5074810;28;20035;-84
2022/09/03 06:34:05;;;;;;;3.22;1.42;;;15.00;97.50;;;;;;5107187;28;20048;-84
2022/09/03 06:36:34;;;;;;;4.43;1.45;;;14.20;97.40;;;;;;5091891;28;20043;-84
2022/09/03 06:39:05;;;;;;;5.60;1.73;;;14.30;97.30;;;;;;5082352;28;20178;-84
2022/09/03 06:41:39;;;;;;;2.38;1.33;;;14.30;97.30;;;;;;5109127;28;20043;-84
2022/09/03 06:44:11;;;;;;;4.70;1.70;;;13.80;97.30;;;;;;5092748;28;20140;-84
2022/09/03 06:46:41;;;;;;;6.57;1.50;;;14.30;97.20;;;;;;5071897;28;20032;-83
2022/09/03 06:49:07;;;;;;;4.57;1.30;;;14.50;97.20;;;;;;5085368;28;20044;-84
2022/09/03 06:51:35;;;;;;;3.83;1.23;;;14.60;97.10;;;;;;5084782;28;20173;-84
2022/09/03 06:54:11;;;;;;;7.53;1.92;;;14.60;97.00;;;;;;5076322;28;20483;-84
2022/09/03 06:56:38;;;;;;;6.15;1.88;;;14.60;97.00;;;;;;5088003;28;20119;-84
2022/09/03 06:59:07;;;;;;;3.33;1.50;;;14.70;96.90;;;;;;5108584;28;20040;-83
2022/09/03 07:01:39;;;;;;;3.60;1.63;;;14.70;96.90;;;;;;5074011;28;20054;-83
2022/09/03 07:04:10;;;;;;;4.65;1.70;;;14.70;96.90;;;;;;5090506;28;20385;-83
2022/09/03 07:06:44;;;;;;;4.15;1.63;;;14.80;96.90;;;;;;5108892;28;20043;-83
2022/09/03 07:09:14;;;;;;;4.32;1.58;;;14.80;96.90;;;;;;5073218;28;20071;-86
2022/09/03 07:11:45;;;;;;;4.68;1.65;;;14.80;96.90;;;;;;5091091;28;20114;-87
2022/09/03 07:14:15;;;;;;;;;;;15.20;97.10;;;;;;5075364;28;20047;-90
2022/09/03 07:16:50;;;;;;;3.50;1.30;;;15.00;96.80;;;;;;5095411;28;19945;-87
2022/09/03 07:19:34;;;;;;;3.30;1.48;;;15.00;96.80;;;;;;5105889;28;20036;-87
2022/09/03 07:22:01;;;;;;;3.35;1.30;;;14.60;96.70;;;;;;5094519;28;20059;-90
2022/09/03 07:24:28;;;;;;;5.60;1.58;;;15.10;96.60;;;;;;5101189;28;20047;-86
2022/09/03 07:26:53;;;;;;;3.05;1.42;;;15.10;96.40;;;;;;5101055;28;20040;-92
2022/09/03 07:29:19;;;;;;;4.07;1.52;;;15.30;96.60;;;;;;5095237;28;20104;-94
2022/09/03 07:31:45;;;;;;;2.78;1.13;;;15.30;96.60;;;;;;5095512;28;20064;-94
2022/09/03 07:34:15;;;;;;;8.10;1.30;;;16.00;96.70;;;;;;5092677;28;20039;-93
2022/09/03 07:36:45;;;;;;;4.50;1.50;;;15.40;96.50;;;;;;5097261;28;20066;-93
2022/09/03 07:39:13;;;;;;;2.60;1.20;;;15.50;96.30;;;;;;5074616;28;20040;-93
2022/09/03 07:41:42;;;;;;;4.22;1.13;;;15.50;96.20;;;;;;5107672;28;20391;-92
2022/09/03 07:44:18;;;;;;;4.43;1.42;;;15.60;96.10;;;;;;5093349;28;20063;-92
2022/09/03 07:46:46;;;;;;;2.78;1.30;;;16.40;96.20;;;;;;5103575;28;20048;-94
2022/09/03 07:49:19;;;;;;;2.60;1.23;;;15.70;96.10;;;;;;5096015;28;20046;-93
2022/09/03 07:51:52;;;;;;;4.45;1.55;;;15.70;95.90;;;;;;5111435;28;20537;-92
2022/09/03 07:54:26;;;;;;;4.30;1.30;;;15.80;96.00;;;;;;5093880;28;20496;-91
2022/09/03 07:56:52;;;;;;;3.15;1.10;;;16.50;95.90;;;;;;5089571;28;20056;-93
2022/09/03 07:59:21;;;;;;;4.43;1.33;;;15.90;95.70;;;;;;5098463;28;20448;-95
2022/09/03 08:01:56;;;;;;;5.65;1.15;;;16.20;95.70;;;;;;5097837;28;20060;-94
2022/09/03 08:04:24;;;;;;;3.47;1.48;;;16.10;95.70;;;;;;5093747;28;20057;-94
2022/09/03 08:06:54;;;;;;;5.88;1.42;;;16.10;95.50;;;;;;5103853;28;20035;-96
2022/09/03 08:09:25;;;;;;;5.90;1.25;;;16.20;95.50;;;;;;5094084;28;20048;-94
2022/09/03 08:11:51;;;;;;;6.22;1.30;;;16.30;95.70;;;;;;5078149;28;20054;-94
2022/09/03 08:14:21;;;;;;;3.08;1.27;;;16.30;95.70;;;;;;5107726;28;20483;-94
2022/09/03 08:16:46;;;;;;;4.22;1.20;;;16.40;96.10;;;;;;5096168;28;20074;-93
2022/09/03 08:19:13;;;;;;;2.75;1.10;;;16.40;95.50;;;;;;5084249;28;20115;-94
2022/09/03 08:21:45;;;;;;;3.45;1.20;;;16.50;95.40;;;;;;5092724;28;20059;-93
2022/09/03 08:24:14;;;;;;;4.68;1.33;;;16.50;95.20;;;;;;5076512;28;20055;-94
2022/09/03 08:26:41;;;;;;;5.05;1.10;;;16.70;95.20;;;;;;5097684;28;20036;-93
2022/09/03 08:29:08;;;;;;;5.82;1.25;;;16.80;95.20;;;;;;5080377;28;20047;-94
2022/09/03 08:31:47;;;;;;;4.53;1.10;;;16.80;95.10;;;;;;5081205;28;20103;-94
2022/09/03 08:34:15;;;;;;;4.70;1.13;;;17.50;95.20;;;;;;5093744;28;20206;-94
2022/09/03 08:36:45;;;;;;;4.07;0.90;;;17.10;95.00;;;;;;5109786;28;20040;-93
2022/09/03 08:39:23;;;;;;;5.40;1.00;;;17.20;94.80;;;;;;5088493;28;20043;-94
2022/09/03 08:41:52;;;;;;;7.20;1.65;;;17.30;94.60;;;;;;5095857;28;20062;-94
2022/09/03 08:44:36;;;;;;;4.70;1.20;;;17.40;94.50;;;;;;5093263;28;20051;-94
2022/09/03 08:47:30;;;;;;;3.63;1.00;;;17.50;94.20;;;;;;5092359;28;20047;-94
2022/09/03 08:50:20;;;;;;;4.97;1.00;;;17.60;94.10;;;;;;5093845;28;20055;-94
2022/09/03 08:52:52;;;;;;;3.95;1.20;;;17.80;93.90;;;;;;5077764;28;20456;-94
2022/09/03 08:55:25;;;;;;;3.97;1.10;;;17.90;93.90;;;;;;5099116;28;20036;-94
2022/09/03 08:58:15;;;;;;;9.00;1.35;;;18.00;93.60;;;;;;5108917;28;20052;-94
2022/09/03 09:01:10;;;;;;;3.95;1.02;;;18.20;93.50;;;;;;5104959;28;20036;-94
2022/09/03 09:04:01;;;;;;;6.05;1.05;;;18.30;93.60;;;;;;5111801;28;20046;-93
2022/09/03 09:06:42;;;;;;;3.90;1.10;;;18.50;93.20;;;;;;5095641;28;20086;-94
2022/09/03 09:09:32;;;;;;;3.83;1.17;;;18.70;92.70;;;;;;5092816;28;20050;-95
2022/09/03 09:12:37;;;;;;;3.17;0.80;;;18.80;92.40;;;;;;5099006;28;20050;-95
2022/09/03 09:15:11;;;;;;;3.65;0.90;;;19.00;92.10;;;;;;5089197;28;20487;-95
2022/09/03 09:18:15;;;;;;;3.90;1.00;;;19.30;92.20;;;;;;5100024;28;20036;-96
2022/09/03 09:21:05;;;;;;;4.93;1.13;;;19.40;92.00;;;;;;5098254;28;20084;-94
2022/09/03 09:23:40;;;;;;;7.95;1.10;;;19.60;91.80;;;;;;5101331;28;20039;-95
2022/09/03 09:26:17;;;;;;;2.67;0.82;;;19.80;91.60;;;;;;5112593;28;20050;-96
2022/09/03 09:28:54;;;;;;;3.53;0.88;;;19.90;91.70;;;;;;5075640;28;20060;-95
2022/09/03 09:31:20;;;;;;;7.68;1.20;;;20.10;90.70;;;;;;5093606;28;20047;-94
2022/09/03 09:33:46;;;;;;;4.72;1.10;;;20.30;90.80;;;;;;5097951;28;20097;-95
2022/09/03 09:36:15;;;;;;;3.97;1.13;;;20.40;90.30;;;;;;5111202;28;20073;-95
2022/09/03 09:38:46;;;;;;;6.78;1.13;;;20.80;89.50;;;;;;5094530;28;20039;-95
2022/09/03 09:41:23;;;;;;;3.10;0.90;;;20.60;90.00;;;;;;5097211;28;20055;-94
2022/09/03 09:44:04;;;;;;;6.78;0.80;;;20.80;90.10;;;;;;5090992;28;20048;-95
2022/09/03 09:46:41;;;;;;;2.75;0.98;;;20.90;88.40;;;;;;5096770;28;20123;-95
2022/09/03 09:49:31;;;;;;;4.75;1.10;;;21.10;87.70;;;;;;5068591;28;20047;-95
2022/09/03 09:52:02;;;;;;;6.28;1.70;;;21.20;86.70;;;;;;5098899;28;20048;-94
2022/09/03 09:54:33;;;;;;;3.53;0.88;;;21.30;87.80;;;;;;5092987;28;20040;-95
2022/09/03 09:57:02;;;;;;;6.97;1.00;;;21.50;87.60;;;;;;5076210;28;20072;-94
2022/09/03 09:59:29;;;;;;;5.55;0.88;;;21.50;87.10;;;;;;5099223;28;20043;-96
2022/09/03 10:02:10;;;;;;;4.45;0.88;;;21.70;86.70;;;;;;5117102;28;20040;-95
2022/09/03 10:04:44;;;;;;;1.70;0.88;;;21.80;85.60;;;;;;5094356;28;20036;-95
2022/09/03 10:07:30;;;;;;;5.00;1.02;;;22.00;85.70;;;;;;5095212;28;20043;-95
2022/09/03 10:10:22;;;;;;;4.03;0.98;;;22.20;84.20;;;;;;5102288;28;20039;-95
2022/09/03 10:12:58;;;;;;;5.20;0.88;;;22.30;84.80;;;;;;5096331;28;20052;-95
2022/09/03 10:15:30;;;;;;;3.67;1.00;;;22.60;83.70;;;;;;5067778;28;20048;-96
2022/09/03 10:18:13;;;;;;;5.97;0.88;;;22.60;83.90;;;;;;5078142;28;20060;-95
2022/09/03 10:21:13;;;;;;;2.47;0.70;;;22.70;83.40;;;;;;5083032;28;20070;-92
2022/09/03 10:23:57;;;;;;;4.05;1.05;;;22.80;83.30;;;;;;5089140;28;20051;-95
2022/09/03 10:26:29;;;;;;;;;;;23.00;83.60;;;;;;5133659;22;20057;-95
2022/09/03 10:29:01;;;;;;;4.25;0.80;;;23.40;81.00;;;;;;5065427;28;19984;-95
2022/09/03 10:32:01;;;;;;;3.70;0.80;;;23.20;81.70;;;;;;5067244;28;20095;-96
2022/09/03 10:34:37;;;;;;;2.50;0.70;;;23.40;81.00;;;;;;5065808;28;20057;-95
2022/09/03 10:37:31;;;;;;;8.80;0.90;;;23.50;80.80;;;;;;5073411;28;20516;-96
2022/09/03 10:39:57;;;;;;;1.50;0.60;;;23.50;79.00;;;;;;5067512;28;20063;-95
2022/09/03 10:42:36;;;;;;;5.53;0.82;;;23.80;80.10;;;;;;5066913;28;20071;-96
2022/09/03 10:45:16;;;;;;;6.05;0.80;;;23.90;78.90;;;;;;5071030;28;20033;-95
2022/09/03 10:48:06;;;;;;;4.85;0.90;;;24.30;79.90;;;;;;5044783;28;20071;-95
2022/09/03 10:51:13;;;;;;;7.03;0.98;;;24.30;78.60;;;;;;5044792;28;20041;-96
2022/09/03 10:54:33;;;;;;;7.22;0.90;;;24.10;76.70;;;;;;5062499;28;20033;-95
2022/09/03 10:57:35;;;;;;;4.28;0.80;;;24.50;77.40;;;;;;4994832;28;20109;-95
2022/09/03 11:00:08;;;;;;;3.25;0.90;;;24.60;76.70;;;;;;4994794;28;20624;-95
2022/09/03 11:03:09;;;;;;;5.00;1.10;;;24.50;76.80;;;;;;4975052;28;20062;-95
2022/09/03 11:06:02;;;;;;;4.95;1.00;;;24.70;76.20;;;;;;4971855;28;20102;-96
2022/09/03 11:08:39;;;;;;;3.78;0.80;;;24.80;74.90;;;;;;4972555;28;20058;-95
2022/09/03 11:11:41;;;;;;;3.63;0.60;;;25.00;74.70;;;;;;4983193;28;20059;-95
2022/09/03 11:14:21;;;;;;;9.60;0.90;;;25.10;74.00;;;;;;4959536;28;20073;-95
2022/09/03 11:17:06;;;;;;;5.75;0.80;;;25.10;74.60;;;;;;4972989;28;20055;-95
2022/09/03 11:20:04;;;;;;;5.15;0.77;;;25.20;73.60;;;;;;4946956;28;20046;-96
2022/09/03 11:22:31;;;;;;;5.35;0.90;;;25.20;73.60;;;;;;4974110;28;20053;-96
2022/09/03 11:25:00;;;;;;;5.43;0.73;;;25.30;73.10;;;;;;4978193;28;20086;-96
2022/09/03 11:27:52;;;;;;;6.13;0.60;;;25.40;74.70;;;;;;4990821;28;20534;-95
2022/09/03 11:30:33;;;;;;;6.50;0.93;;;25.60;72.80;;;;;;4988695;28;20047;-94
2022/09/03 11:33:08;;;;;;;4.00;0.88;;;25.50;71.40;;;;;;5012461;28;20039;-96
2022/09/03 11:35:40;;;;;;;2.25;0.73;;;25.50;73.60;;;;;;5067337;28;20048;-96
2022/09/03 11:38:15;;;;;;;4.85;0.90;;;25.60;71.10;;;;;;5060871;28;20053;-96
2022/09/03 11:41:20;;;;;;;2.05;0.60;;;25.70;71.70;;;;;;5068738;28;20032;-95
2022/09/03 11:43:46;;;;;;;3.97;0.70;;;25.80;70.60;;;;;;5066769;28;20080;-95
2022/09/03 11:46:21;;;;;;;4.13;0.80;;;26.00;72.30;;;;;;5056958;28;20029;-95
2022/09/03 11:48:59;;;;;;;4.68;1.00;;;25.90;71.10;;;;;;5053892;28;20052;-96
2022/09/03 11:51:36;;;;;;;6.00;0.82;;;26.00;71.60;;;;;;5067764;28;20053;-96
2022/09/03 11:54:24;;;;;;;3.17;0.80;;;26.10;70.80;;;;;;5064760;28;20053;-95
2022/09/03 11:57:04;;;;;;;7.13;0.98;;;26.30;70.10;;;;;;5070065;28;20041;-96
2022/09/03 11:59:30;;;;;;;3.38;0.98;;;26.20;70.80;;;;;;5069584;28;20053;-96
2022/09/03 12:02:26;;;;;;;4.20;0.85;;;26.70;70.70;;;;;;5068419;28;20052;-96
2022/09/03 12:05:20;;;;;;;4.43;0.75;;;26.50;69.60;;;;;;5056810;28;20041;-96
2022/09/03 12:08:23;;;;;;;5.32;0.80;;;26.60;68.80;;;;;;5062379;28;20041;-96
2022/09/03 12:10:49;;;;;;;3.33;0.57;;;26.70;68.20;;;;;;5068952;28;20061;-95
2022/09/03 12:13:34;;;;;;;9.13;0.90;;;26.80;69.70;;;;;;5062015;28;20045;-96
2022/09/03 12:16:09;;;;;;;2.97;0.60;;;26.80;67.60;;;;;;5068587;28;20041;-96
2022/09/03 12:18:36;;;;;;;3.00;0.63;;;26.80;70.40;;;;;;5063899;28;20041;-96
2022/09/03 12:21:16;;;;;;;4.00;0.70;;;26.90;68.70;;;;;;5076141;28;20084;-95
2022/09/03 12:23:49;;;;;;;2.25;0.60;;;26.80;68.30;;;;;;5074644;28;20079;-96
2022/09/03 12:26:18;;;;;;;4.30;0.63;;;27.00;66.80;;;;;;5090750;28;20044;-96
2022/09/03 12:28:47;;;;;;;2.70;0.70;;;26.90;67.00;;;;;;5078172;28;20071;-96
2022/09/03 12:31:24;;;;;;;1.88;0.68;;;27.10;67.70;;;;;;5098636;28;20032;-95
2022/09/03 12:34:24;;;;;;;4.13;0.50;;;27.20;67.40;;;;;;5082308;28;20036;-96
2022/09/03 12:37:15;;;;;;;2.63;0.70;;;27.30;66.50;;;;;;5068789;28;20032;-96
2022/09/03 12:40:15;;;;;;;2.33;0.70;;;27.50;67.40;;;;;;5097622;28;20473;-95
2022/09/03 12:42:41;;;;;;;2.40;0.77;;;27.40;65.40;;;;;;5095154;28;20048;-95
2022/09/03 12:45:54;;;;;;;4.45;0.77;;;27.50;66.70;;;;;;5080447;28;20056;-96
2022/09/03 12:48:26;;;;;;;6.57;0.57;;;27.40;65.80;;;;;;5071611;28;20060;-96
2022/09/03 12:51:05;;;;;;;1.70;0.70;;;27.60;67.20;;;;;;5096475;28;20052;-96
2022/09/03 12:53:34;;;;;;;3.83;0.70;;;27.70;65.40;;;;;;5098038;28;20044;-96
2022/09/03 12:56:40;;;;;;;4.10;0.85;;;27.50;65.50;;;;;;5091277;28;20070;-96
2022/09/03 12:59:36;;;;;;;11.48;0.70;;;27.70;65.10;;;;;;5085671;28;20052;-96
2022/09/03 13:02:38;;;;;;;2.73;0.50;;;27.70;64.80;;;;;;5078253;28;20052;-96
2022/09/03 13:08:19;;;;;;;4.57;0.75;;;27.80;65.60;;;;;;5089827;28;20112;-96
2022/09/03 13:11:04;;;;;;;4.82;0.70;;;27.80;65.30;;;;;;5095663;28;20074;-96
2022/09/03 13:14:00;;;;;;;3.67;0.80;;;27.80;65.50;;;;;;5086140;28;20040;-96
2022/09/03 13:16:46;;;;;;;3.33;0.70;;;27.80;64.20;;;;;;5096514;28;20029;-95
2022/09/03 13:19:24;;;;;;;5.40;0.63;;;27.80;65.30;;;;;;5092762;28;20108;-96
2022/09/03 13:22:15;;;;;;;3.97;0.70;;;27.90;65.00;;;;;;5083876;28;20519;-96
2022/09/03 13:25:40;;;;;;;4.95;0.80;;;28.00;64.00;;;;;;5085293;28;20049;-95
2022/09/03 13:29:10;;;;;;;4.50;0.60;;;28.10;64.90;;;;;;5085315;28;20036;-95
2022/09/03 13:32:00;;;;;;;2.38;0.65;;;27.90;63.30;;;;;;5092890;28;20032;-96
2022/09/03 13:34:47;;;;;;;3.88;0.60;;;27.90;68.20;;;;;;5089986;28;20115;-96
2022/09/03 13:37:35;;;;;;;3.90;0.80;;;27.90;64.20;;;;;;5093216;28;20048;-96
2022/09/03 13:40:41;;;;;;;2.22;0.70;;;27.90;64.60;;;;;;5072042;28;20044;-96
2022/09/03 13:43:37;;;;;;;7.55;0.63;;;27.90;62.80;;;;;;5087414;28;20037;-96